sensor_id;sensor_type;location;lat;lon;timestamp;P1;durP1;ratioP1;P2;durP2;ratioP2
27632;SDS011;15046;50.930;13.334;2023-04-03T00:02:15;7.07;;;1.50;;
27632;SDS011;15046;50.930;13.334;2023-04-03T00:04:40;7.97;;;1.88;;
27632;SDS011;15046;50.930;13.334;2023-04-03T00:07:06;6.00;;;1.92;;
27632;SDS011;15046;50.930;13.334;2023-04-03T00:09:32;8.48;;;1.70;;
27632;SDS011;15046;50.930;13.334;2023-04-03T00:11:58;8.02;;;1.63;;
27632;SDS011;15046;50.930;13.334;2023-04-03T00:14:23;7.35;;;1.50;;
27632;SDS011;15046;50.930;13.334;2023-04-03T00:16:49;5.03;;;1.50;;
27632;SDS011;15046;50.930;13.334;2023-04-03T00:19:15;10.63;;;2.13;;
27632;SDS011;15046;50.930;13.334;2023-04-03T00:21:41;3.80;;;1.50;;
27632;SDS011;15046;50.930;13.334;2023-04-03T00:24:06;6.20;;;1.40;;
27632;SDS011;15046;50.930;13.334;2023-04-03T00:26:32;5.93;;;2.03;;
27632;SDS011;15046;50.930;13.334;2023-04-03T00:28:58;5.22;;;1.30;;
27632;SDS011;15046;50.930;13.334;2023-04-03T00:31:24;5.85;;;1.52;;
27632;SDS011;15046;50.930;13.334;2023-04-03T00:33:50;7.97;;;1.38;;
27632;SDS011;15046;50.930;13.334;2023-04-03T00:36:15;6.80;;;1.67;;
27632;SDS011;15046;50.930;13.334;2023-04-03T00:38:41;7.30;;;1.50;;
27632;SDS011;15046;50.930;13.334;2023-04-03T00:41:07;4.22;;;1.40;;
27632;SDS011;15046;50.930;13.334;2023-04-03T00:43:33;3.38;;;1.20;;
27632;SDS011;15046;50.930;13.334;2023-04-03T00:45:59;4.43;;;1.45;;
27632;SDS011;15046;50.930;13.334;2023-04-03T00:48:27;5.03;;;1.40;;
27632;SDS011;15046;50.930;13.334;2023-04-03T00:51:06;4.30;;;1.48;;
27632;SDS011;15046;50.930;13.334;2023-04-03T00:53:38;6.40;;;1.83;;
27632;SDS011;15046;50.930;13.334;2023-04-03T00:56:09;6.10;;;1.55;;
27632;SDS011;15046;50.930;13.334;2023-04-03T00:58:39;5.85;;;1.92;;
27632;SDS011;15046;50.930;13.334;2023-04-03T01:01:11;5.90;;;1.65;;
27632;SDS011;15046;50.930;13.334;2023-04-03T01:03:40;12.90;;;1.70;;
27632;SDS011;15046;50.930;13.334;2023-04-03T01:06:06;5.00;;;1.70;;
27632;SDS011;15046;50.930;13.334;2023-04-03T01:08:32;6.68;;;2.05;;
27632;SDS011;15046;50.930;13.334;2023-04-03T01:10:58;7.10;;;1.60;;
27632;SDS011;15046;50.930;13.334;2023-04-03T01:13:27;4.00;;;1.63;;
27632;SDS011;15046;50.930;13.334;2023-04-03T01:15:55;4.97;;;1.92;;
27632;SDS011;15046;50.930;13.334;2023-04-03T01:18:22;4.30;;;1.63;;
27632;SDS011;15046;50.930;13.334;2023-04-03T01:23:40;4.07;;;1.45;;
27632;SDS011;15046;50.930;13.334;2023-04-03T01:26:39;8.43;;;1.63;;
27632;SDS011;15046;50.930;13.334;2023-04-03T01:29:05;5.75;;;1.60;;
27632;SDS011;15046;50.930;13.334;2023-04-03T01:33:59;9.10;;;2.05;;
27632;SDS011;15046;50.930;13.334;2023-04-03T01:36:27;7.30;;;1.75;;
27632;SDS011;15046;50.930;13.334;2023-04-03T01:38:55;8.40;;;1.92;;
27632;SDS011;15046;50.930;13.334;2023-04-03T01:41:21;6.93;;;1.77;;
27632;SDS011;15046;50.930;13.334;2023-04-03T01:43:48;5.15;;;1.60;;
27632;SDS011;15046;50.930;13.334;2023-04-03T01:46:15;6.35;;;1.40;;
27632;SDS011;15046;50.930;13.334;2023-04-03T01:48:41;5.85;;;1.70;;
27632;SDS011;15046;50.930;13.334;2023-04-03T01:51:07;8.95;;;2.25;;
27632;SDS011;15046;50.930;13.334;2023-04-03T01:53:33;5.50;;;1.65;;
27632;SDS011;15046;50.930;13.334;2023-04-03T01:55:59;7.82;;;2.22;;
27632;SDS011;15046;50.930;13.334;2023-04-03T01:58:24;9.48;;;1.77;;
27632;SDS011;15046;50.930;13.334;2023-04-03T02:00:51;6.88;;;1.73;;
27632;SDS011;15046;50.930;13.334;2023-04-03T02:03:17;6.00;;;1.65;;
27632;SDS011;15046;50.930;13.334;2023-04-03T02:05:43;7.20;;;1.65;;
27632;SDS011;15046;50.930;13.334;2023-04-03T02:08:09;5.50;;;1.75;;
27632;SDS011;15046;50.930;13.334;2023-04-03T02:10:35;4.13;;;1.55;;
27632;SDS011;15046;50.930;13.334;2023-04-03T02:13:01;5.88;;;1.60;;
27632;SDS011;15046;50.930;13.334;2023-04-03T02:15:27;6.22;;;1.55;;
27632;SDS011;15046;50.930;13.334;2023-04-03T02:17:53;6.22;;;1.48;;
27632;SDS011;15046;50.930;13.334;2023-04-03T02:20:19;10.15;;;2.25;;
27632;SDS011;15046;50.930;13.334;2023-04-03T02:22:45;8.18;;;2.05;;
27632;SDS011;15046;50.930;13.334;2023-04-03T02:25:11;5.15;;;1.83;;
27632;SDS011;15046;50.930;13.334;2023-04-03T02:27:37;5.40;;;2.03;;
27632;SDS011;15046;50.930;13.334;2023-04-03T02:30:03;6.28;;;1.80;;
27632;SDS011;15046;50.930;13.334;2023-04-03T02:32:30;7.22;;;2.25;;
27632;SDS011;15046;50.930;13.334;2023-04-03T02:34:56;5.93;;;1.73;;
27632;SDS011;15046;50.930;13.334;2023-04-03T02:37:22;6.72;;;1.70;;
27632;SDS011;15046;50.930;13.334;2023-04-03T02:39:48;6.85;;;1.70;;
27632;SDS011;15046;50.930;13.334;2023-04-03T02:42:13;7.63;;;2.50;;
27632;SDS011;15046;50.930;13.334;2023-04-03T02:44:39;6.97;;;1.75;;
27632;SDS011;15046;50.930;13.334;2023-04-03T02:47:05;7.90;;;2.00;;
27632;SDS011;15046;50.930;13.334;2023-04-03T02:49:31;4.63;;;1.65;;
27632;SDS011;15046;50.930;13.334;2023-04-03T02:51:57;4.00;;;1.70;;
27632;SDS011;15046;50.930;13.334;2023-04-03T02:54:22;8.10;;;1.98;;
27632;SDS011;15046;50.930;13.334;2023-04-03T02:56:49;6.72;;;2.10;;
27632;SDS011;15046;50.930;13.334;2023-04-03T02:59:15;7.97;;;2.15;;
27632;SDS011;15046;50.930;13.334;2023-04-03T03:01:41;6.97;;;1.98;;
27632;SDS011;15046;50.930;13.334;2023-04-03T03:04:07;6.15;;;1.60;;
27632;SDS011;15046;50.930;13.334;2023-04-03T03:06:32;4.43;;;2.42;;
27632;SDS011;15046;50.930;13.334;2023-04-03T03:08:58;8.32;;;2.08;;
27632;SDS011;15046;50.930;13.334;2023-04-03T03:11:24;4.10;;;1.40;;
27632;SDS011;15046;50.930;13.334;2023-04-03T03:13:51;4.00;;;1.65;;
27632;SDS011;15046;50.930;13.334;2023-04-03T03:16:17;5.20;;;1.80;;
27632;SDS011;15046;50.930;13.334;2023-04-03T03:18:42;7.72;;;1.77;;
27632;SDS011;15046;50.930;13.334;2023-04-03T03:21:08;5.60;;;1.60;;
27632;SDS011;15046;50.930;13.334;2023-04-03T03:23:35;14.70;;;2.42;;
27632;SDS011;15046;50.930;13.334;2023-04-03T03:26:02;7.97;;;2.42;;
27632;SDS011;15046;50.930;13.334;2023-04-03T03:28:29;6.85;;;2.25;;
27632;SDS011;15046;50.930;13.334;2023-04-03T03:30:56;6.47;;;1.73;;
27632;SDS011;15046;50.930;13.334;2023-04-03T03:33:22;4.82;;;1.75;;
27632;SDS011;15046;50.930;13.334;2023-04-03T03:35:48;6.32;;;1.95;;
27632;SDS011;15046;50.930;13.334;2023-04-03T03:38:14;7.70;;;2.00;;
27632;SDS011;15046;50.930;13.334;2023-04-03T03:40:39;6.82;;;1.85;;
27632;SDS011;15046;50.930;13.334;2023-04-03T03:43:05;6.70;;;1.80;;
27632;SDS011;15046;50.930;13.334;2023-04-03T03:45:31;7.57;;;1.85;;
27632;SDS011;15046;50.930;13.334;2023-04-03T03:47:57;6.78;;;2.15;;
27632;SDS011;15046;50.930;13.334;2023-04-03T03:50:23;7.40;;;1.75;;
27632;SDS011;15046;50.930;13.334;2023-04-03T03:52:48;5.97;;;1.88;;
27632;SDS011;15046;50.930;13.334;2023-04-03T03:55:14;6.55;;;1.80;;
27632;SDS011;15046;50.930;13.334;2023-04-03T03:57:40;7.75;;;2.25;;
27632;SDS011;15046;50.930;13.334;2023-04-03T04:00:06;6.00;;;1.50;;
27632;SDS011;15046;50.930;13.334;2023-04-03T04:02:33;7.95;;;2.00;;
27632;SDS011;15046;50.930;13.334;2023-04-03T04:04:59;6.03;;;1.58;;
27632;SDS011;15046;50.930;13.334;2023-04-03T04:07:25;6.03;;;1.45;;
27632;SDS011;15046;50.930;13.334;2023-04-03T04:09:53;9.02;;;2.00;;
27632;SDS011;15046;50.930;13.334;2023-04-03T04:12:19;6.10;;;1.70;;
27632;SDS011;15046;50.930;13.334;2023-04-03T04:14:45;7.13;;;2.50;;
27632;SDS011;15046;50.930;13.334;2023-04-03T04:17:12;5.45;;;1.80;;
27632;SDS011;15046;50.930;13.334;2023-04-03T04:19:38;7.30;;;1.95;;
27632;SDS011;15046;50.930;13.334;2023-04-03T04:22:04;5.43;;;2.60;;
27632;SDS011;15046;50.930;13.334;2023-04-03T04:24:30;6.43;;;2.15;;
27632;SDS011;15046;50.930;13.334;2023-04-03T04:26:55;4.15;;;1.75;;
27632;SDS011;15046;50.930;13.334;2023-04-03T04:29:21;10.27;;;2.35;;
27632;SDS011;15046;50.930;13.334;2023-04-03T04:31:47;8.82;;;2.22;;
27632;SDS011;15046;50.930;13.334;2023-04-03T04:34:13;7.13;;;2.45;;
27632;SDS011;15046;50.930;13.334;2023-04-03T04:36:39;7.60;;;2.63;;
27632;SDS011;15046;50.930;13.334;2023-04-03T04:39:05;10.45;;;2.58;;
27632;SDS011;15046;50.930;13.334;2023-04-03T04:41:31;6.78;;;2.20;;
27632;SDS011;15046;50.930;13.334;2023-04-03T04:43:56;9.07;;;2.42;;
27632;SDS011;15046;50.930;13.334;2023-04-03T04:46:22;9.90;;;2.40;;
27632;SDS011;15046;50.930;13.334;2023-04-03T04:48:48;7.82;;;2.13;;
27632;SDS011;15046;50.930;13.334;2023-04-03T04:51:14;5.47;;;2.22;;
27632;SDS011;15046;50.930;13.334;2023-04-03T04:53:40;6.00;;;2.00;;
27632;SDS011;15046;50.930;13.334;2023-04-03T04:56:07;7.40;;;2.10;;
27632;SDS011;15046;50.930;13.334;2023-04-03T04:58:33;6.18;;;1.98;;
27632;SDS011;15046;50.930;13.334;2023-04-03T05:01:00;11.32;;;2.50;;
27632;SDS011;15046;50.930;13.334;2023-04-03T05:03:27;8.00;;;2.28;;
27632;SDS011;15046;50.930;13.334;2023-04-03T05:05:53;9.65;;;2.40;;
27632;SDS011;15046;50.930;13.334;2023-04-03T05:08:19;7.50;;;2.33;;
27632;SDS011;15046;50.930;13.334;2023-04-03T05:10:46;9.75;;;2.63;;
27632;SDS011;15046;50.930;13.334;2023-04-03T05:13:12;7.93;;;2.25;;
27632;SDS011;15046;50.930;13.334;2023-04-03T05:15:38;7.68;;;2.22;;
27632;SDS011;15046;50.930;13.334;2023-04-03T05:18:04;7.90;;;3.35;;
27632;SDS011;15046;50.930;13.334;2023-04-03T05:20:30;7.93;;;2.35;;
27632;SDS011;15046;50.930;13.334;2023-04-03T05:22:57;4.75;;;1.98;;
27632;SDS011;15046;50.930;13.334;2023-04-03T05:25:23;5.32;;;2.08;;
27632;SDS011;15046;50.930;13.334;2023-04-03T05:27:49;5.85;;;2.55;;
27632;SDS011;15046;50.930;13.334;2023-04-03T05:30:15;7.80;;;2.45;;
27632;SDS011;15046;50.930;13.334;2023-04-03T05:32:40;9.02;;;2.45;;
27632;SDS011;15046;50.930;13.334;2023-04-03T05:35:07;8.32;;;2.20;;
27632;SDS011;15046;50.930;13.334;2023-04-03T05:37:33;7.95;;;2.38;;
27632;SDS011;15046;50.930;13.334;2023-04-03T05:40:01;4.90;;;1.70;;
27632;SDS011;15046;50.930;13.334;2023-04-03T05:42:33;8.68;;;2.60;;
27632;SDS011;15046;50.930;13.334;2023-04-03T05:45:07;11.98;;;2.25;;
27632;SDS011;15046;50.930;13.334;2023-04-03T05:47:36;6.55;;;1.95;;
27632;SDS011;15046;50.930;13.334;2023-04-03T05:50:02;9.85;;;3.15;;
27632;SDS011;15046;50.930;13.334;2023-04-03T05:52:29;6.22;;;2.10;;
27632;SDS011;15046;50.930;13.334;2023-04-03T05:54:57;8.35;;;2.40;;
27632;SDS011;15046;50.930;13.334;2023-04-03T05:57:23;8.00;;;2.08;;
27632;SDS011;15046;50.930;13.334;2023-04-03T05:59:49;8.32;;;2.03;;
27632;SDS011;15046;50.930;13.334;2023-04-03T06:02:16;6.85;;;2.95;;
27632;SDS011;15046;50.930;13.334;2023-04-03T06:04:44;9.80;;;2.67;;
27632;SDS011;15046;50.930;13.334;2023-04-03T06:07:11;8.35;;;2.30;;
27632;SDS011;15046;50.930;13.334;2023-04-03T06:09:40;7.03;;;2.58;;
27632;SDS011;15046;50.930;13.334;2023-04-03T06:12:06;7.90;;;2.03;;
27632;SDS011;15046;50.930;13.334;2023-04-03T06:14:32;10.25;;;2.63;;
27632;SDS011;15046;50.930;13.334;2023-04-03T06:16:58;7.70;;;2.20;;
27632;SDS011;15046;50.930;13.334;2023-04-03T06:19:24;9.70;;;2.50;;
27632;SDS011;15046;50.930;13.334;2023-04-03T06:21:51;4.25;;;1.98;;
27632;SDS011;15046;50.930;13.334;2023-04-03T06:24:17;7.55;;;2.75;;
27632;SDS011;15046;50.930;13.334;2023-04-03T06:26:44;9.20;;;2.80;;
27632;SDS011;15046;50.930;13.334;2023-04-03T06:29:11;7.75;;;2.50;;
27632;SDS011;15046;50.930;13.334;2023-04-03T06:31:37;6.25;;;2.28;;
27632;SDS011;15046;50.930;13.334;2023-04-03T06:34:03;7.95;;;2.58;;
27632;SDS011;15046;50.930;13.334;2023-04-03T06:36:29;7.85;;;2.45;;
27632;SDS011;15046;50.930;13.334;2023-04-03T06:38:55;7.10;;;2.10;;
27632;SDS011;15046;50.930;13.334;2023-04-03T06:41:21;7.45;;;2.30;;
27632;SDS011;15046;50.930;13.334;2023-04-03T06:43:47;6.70;;;2.95;;
27632;SDS011;15046;50.930;13.334;2023-04-03T06:46:19;8.57;;;3.38;;
27632;SDS011;15046;50.930;13.334;2023-04-03T06:48:47;11.10;;;2.75;;
27632;SDS011;15046;50.930;13.334;2023-04-03T06:51:34;10.63;;;2.30;;
27632;SDS011;15046;50.930;13.334;2023-04-03T06:54:00;11.15;;;2.83;;
27632;SDS011;15046;50.930;13.334;2023-04-03T06:56:27;6.85;;;2.60;;
27632;SDS011;15046;50.930;13.334;2023-04-03T06:58:54;14.23;;;3.40;;
27632;SDS011;15046;50.930;13.334;2023-04-03T07:01:23;8.27;;;2.53;;
27632;SDS011;15046;50.930;13.334;2023-04-03T07:03:51;10.27;;;2.28;;
27632;SDS011;15046;50.930;13.334;2023-04-03T07:06:17;10.60;;;2.85;;
27632;SDS011;15046;50.930;13.334;2023-04-03T07:08:44;7.43;;;2.58;;
27632;SDS011;15046;50.930;13.334;2023-04-03T07:11:11;10.55;;;3.00;;
27632;SDS011;15046;50.930;13.334;2023-04-03T07:13:38;6.78;;;2.90;;
27632;SDS011;15046;50.930;13.334;2023-04-03T07:16:04;11.35;;;2.60;;
27632;SDS011;15046;50.930;13.334;2023-04-03T07:18:31;11.85;;;3.25;;
27632;SDS011;15046;50.930;13.334;2023-04-03T07:20:58;9.45;;;2.63;;
27632;SDS011;15046;50.930;13.334;2023-04-03T07:23:23;7.50;;;2.92;;
27632;SDS011;15046;50.930;13.334;2023-04-03T07:25:50;10.73;;;2.70;;
27632;SDS011;15046;50.930;13.334;2023-04-03T07:28:17;12.70;;;2.80;;
27632;SDS011;15046;50.930;13.334;2023-04-03T07:30:45;10.02;;;3.17;;
27632;SDS011;15046;50.930;13.334;2023-04-03T07:33:12;7.90;;;2.85;;
27632;SDS011;15046;50.930;13.334;2023-04-03T07:35:40;10.45;;;3.00;;
27632;SDS011;15046;50.930;13.334;2023-04-03T07:38:06;8.10;;;2.97;;
27632;SDS011;15046;50.930;13.334;2023-04-03T07:40:33;9.63;;;3.30;;
27632;SDS011;15046;50.930;13.334;2023-04-03T07:43:00;8.88;;;3.20;;
27632;SDS011;15046;50.930;13.334;2023-04-03T07:45:26;10.15;;;3.20;;
27632;SDS011;15046;50.930;13.334;2023-04-03T07:47:52;9.20;;;3.38;;
27632;SDS011;15046;50.930;13.334;2023-04-03T07:50:18;6.90;;;2.47;;
27632;SDS011;15046;50.930;13.334;2023-04-03T07:52:44;4.55;;;2.65;;
27632;SDS011;15046;50.930;13.334;2023-04-03T07:55:11;13.30;;;2.95;;
27632;SDS011;15046;50.930;13.334;2023-04-03T07:57:37;5.78;;;2.58;;
27632;SDS011;15046;50.930;13.334;2023-04-03T08:00:03;10.27;;;3.47;;
27632;SDS011;15046;50.930;13.334;2023-04-03T08:02:30;6.00;;;2.88;;
27632;SDS011;15046;50.930;13.334;2023-04-03T08:04:57;6.30;;;2.70;;
27632;SDS011;15046;50.930;13.334;2023-04-03T08:07:23;4.35;;;2.47;;
27632;SDS011;15046;50.930;13.334;2023-04-03T08:09:50;10.38;;;3.83;;
27632;SDS011;15046;50.930;13.334;2023-04-03T08:12:16;7.22;;;2.70;;
27632;SDS011;15046;50.930;13.334;2023-04-03T08:14:42;6.50;;;2.70;;
27632;SDS011;15046;50.930;13.334;2023-04-03T08:17:08;7.40;;;3.00;;
27632;SDS011;15046;50.930;13.334;2023-04-03T08:19:39;8.98;;;3.80;;
27632;SDS011;15046;50.930;13.334;2023-04-03T08:22:06;14.30;;;3.38;;
27632;SDS011;15046;50.930;13.334;2023-04-03T08:24:32;8.40;;;3.80;;
27632;SDS011;15046;50.930;13.334;2023-04-03T08:26:58;7.35;;;3.85;;
27632;SDS011;15046;50.930;13.334;2023-04-03T08:29:25;9.02;;;4.03;;
27632;SDS011;15046;50.930;13.334;2023-04-03T08:31:51;11.63;;;4.57;;
27632;SDS011;15046;50.930;13.334;2023-04-03T08:34:17;11.05;;;3.67;;
27632;SDS011;15046;50.930;13.334;2023-04-03T08:36:43;8.25;;;3.30;;
27632;SDS011;15046;50.930;13.334;2023-04-03T08:39:09;12.23;;;3.25;;
27632;SDS011;15046;50.930;13.334;2023-04-03T08:41:37;8.35;;;2.83;;
27632;SDS011;15046;50.930;13.334;2023-04-03T08:51:54;7.00;;;3.25;;
27632;SDS011;15046;50.930;13.334;2023-04-03T08:54:36;7.85;;;3.00;;
27632;SDS011;15046;50.930;13.334;2023-04-03T08:57:26;10.02;;;3.20;;
27632;SDS011;15046;50.930;13.334;2023-04-03T08:59:53;5.93;;;2.95;;
27632;SDS011;15046;50.930;13.334;2023-04-03T09:02:31;8.10;;;3.25;;
27632;SDS011;15046;50.930;13.334;2023-04-03T09:05:01;10.52;;;3.20;;
27632;SDS011;15046;50.930;13.334;2023-04-03T09:07:33;6.47;;;2.65;;
27632;SDS011;15046;50.930;13.334;2023-04-03T09:10:08;5.78;;;2.70;;
27632;SDS011;15046;50.930;13.334;2023-04-03T09:12:50;7.82;;;3.83;;
27632;SDS011;15046;50.930;13.334;2023-04-03T09:15:25;9.02;;;3.67;;
27632;SDS011;15046;50.930;13.334;2023-04-03T09:20:46;10.20;;;4.00;;
27632;SDS011;15046;50.930;13.334;2023-04-03T09:23:41;8.88;;;3.42;;
27632;SDS011;15046;50.930;13.334;2023-04-03T09:26:17;9.60;;;3.45;;
27632;SDS011;15046;50.930;13.334;2023-04-03T09:29:01;9.70;;;3.40;;
27632;SDS011;15046;50.930;13.334;2023-04-03T09:31:35;20.05;;;4.35;;
27632;SDS011;15046;50.930;13.334;2023-04-03T09:34:03;8.65;;;3.10;;
27632;SDS011;15046;50.930;13.334;2023-04-03T09:39:17;7.63;;;3.30;;
27632;SDS011;15046;50.930;13.334;2023-04-03T09:44:31;5.28;;;3.33;;
27632;SDS011;15046;50.930;13.334;2023-04-03T09:46:58;6.20;;;2.92;;
27632;SDS011;15046;50.930;13.334;2023-04-03T09:49:24;6.72;;;3.17;;
27632;SDS011;15046;50.930;13.334;2023-04-03T09:51:50;7.68;;;2.80;;
27632;SDS011;15046;50.930;13.334;2023-04-03T09:54:30;6.78;;;2.80;;
27632;SDS011;15046;50.930;13.334;2023-04-03T09:56:57;5.20;;;2.38;;
27632;SDS011;15046;50.930;13.334;2023-04-03T09:59:28;7.28;;;2.20;;
27632;SDS011;15046;50.930;13.334;2023-04-03T10:02:00;9.43;;;3.25;;
27632;SDS011;15046;50.930;13.334;2023-04-03T10:04:39;5.82;;;2.80;;
27632;SDS011;15046;50.930;13.334;2023-04-03T10:07:25;7.20;;;2.83;;
27632;SDS011;15046;50.930;13.334;2023-04-03T10:09:57;6.13;;;2.70;;
27632;SDS011;15046;50.930;13.334;2023-04-03T10:12:24;6.78;;;2.95;;
27632;SDS011;15046;50.930;13.334;2023-04-03T10:20:26;4.38;;;1.88;;
27632;SDS011;15046;50.930;13.334;2023-04-03T10:26:29;8.15;;;2.17;;
27632;SDS011;15046;50.930;13.334;2023-04-03T10:28:57;9.50;;;2.83;;
27632;SDS011;15046;50.930;13.334;2023-04-03T10:34:21;7.38;;;3.72;;
27632;SDS011;15046;50.930;13.334;2023-04-03T10:42:35;11.88;;;3.47;;
27632;SDS011;15046;50.930;13.334;2023-04-03T10:48:08;4.45;;;1.85;;
27632;SDS011;15046;50.930;13.334;2023-04-03T10:53:56;3.33;;;1.30;;
27632;SDS011;15046;50.930;13.334;2023-04-03T11:01:42;5.82;;;1.80;;
27632;SDS011;15046;50.930;13.334;2023-04-03T11:04:10;3.35;;;1.50;;
27632;SDS011;15046;50.930;13.334;2023-04-03T11:06:39;6.20;;;2.35;;
27632;SDS011;15046;50.930;13.334;2023-04-03T11:09:20;6.67;;;1.80;;
27632;SDS011;15046;50.930;13.334;2023-04-03T11:12:13;4.32;;;1.65;;
27632;SDS011;15046;50.930;13.334;2023-04-03T11:14:46;2.72;;;1.30;;
27632;SDS011;15046;50.930;13.334;2023-04-03T11:22:32;6.60;;;1.65;;
27632;SDS011;15046;50.930;13.334;2023-04-03T11:27:40;5.53;;;1.48;;
27632;SDS011;15046;50.930;13.334;2023-04-03T11:30:11;5.15;;;1.67;;
27632;SDS011;15046;50.930;13.334;2023-04-03T11:35:42;7.88;;;1.80;;
27632;SDS011;15046;50.930;13.334;2023-04-03T11:38:26;6.47;;;1.50;;
27632;SDS011;15046;50.930;13.334;2023-04-03T11:41:04;3.67;;;1.60;;
27632;SDS011;15046;50.930;13.334;2023-04-03T11:43:33;6.03;;;1.35;;
27632;SDS011;15046;50.930;13.334;2023-04-03T11:46:00;4.40;;;1.40;;
27632;SDS011;15046;50.930;13.334;2023-04-03T11:53:41;7.20;;;1.52;;
27632;SDS011;15046;50.930;13.334;2023-04-03T11:56:27;3.85;;;1.42;;
27632;SDS011;15046;50.930;13.334;2023-04-03T12:04:09;8.18;;;1.67;;
27632;SDS011;15046;50.930;13.334;2023-04-03T12:09:22;3.90;;;1.10;;
27632;SDS011;15046;50.930;13.334;2023-04-03T12:12:22;3.90;;;1.20;;
27632;SDS011;15046;50.930;13.334;2023-04-03T12:14:53;4.53;;;1.30;;
27632;SDS011;15046;50.930;13.334;2023-04-03T12:17:25;10.30;;;1.63;;
27632;SDS011;15046;50.930;13.334;2023-04-03T12:19:52;3.55;;;1.10;;
27632;SDS011;15046;50.930;13.334;2023-04-03T12:22:21;2.63;;;1.10;;
27632;SDS011;15046;50.930;13.334;2023-04-03T12:24:48;2.28;;;0.90;;
27632;SDS011;15046;50.930;13.334;2023-04-03T12:37:43;4.55;;;1.90;;
27632;SDS011;15046;50.930;13.334;2023-04-03T12:40:25;3.63;;;1.10;;
27632;SDS011;15046;50.930;13.334;2023-04-03T12:45:41;3.10;;;1.10;;
27632;SDS011;15046;50.930;13.334;2023-04-03T12:48:17;3.08;;;1.35;;
27632;SDS011;15046;50.930;13.334;2023-04-03T12:50:47;5.60;;;1.38;;
27632;SDS011;15046;50.930;13.334;2023-04-03T12:53:18;5.40;;;1.10;;
27632;SDS011;15046;50.930;13.334;2023-04-03T12:56:45;5.55;;;1.02;;
27632;SDS011;15046;50.930;13.334;2023-04-03T13:01:52;5.53;;;1.38;;
27632;SDS011;15046;50.930;13.334;2023-04-03T13:04:29;3.45;;;1.08;;
27632;SDS011;15046;50.930;13.334;2023-04-03T13:06:57;6.35;;;1.98;;
27632;SDS011;15046;50.930;13.334;2023-04-03T13:09:27;3.88;;;1.02;;
27632;SDS011;15046;50.930;13.334;2023-04-03T13:14:21;4.43;;;1.20;;
27632;SDS011;15046;50.930;13.334;2023-04-03T13:16:59;2.35;;;0.98;;
27632;SDS011;15046;50.930;13.334;2023-04-03T13:19:31;5.95;;;1.52;;
27632;SDS011;15046;50.930;13.334;2023-04-03T13:21:59;4.80;;;0.90;;
27632;SDS011;15046;50.930;13.334;2023-04-03T13:24:36;3.17;;;1.08;;
27632;SDS011;15046;50.930;13.334;2023-04-03T13:27:03;4.85;;;1.33;;
27632;SDS011;15046;50.930;13.334;2023-04-03T13:29:31;4.05;;;1.17;;
27632;SDS011;15046;50.930;13.334;2023-04-03T13:32:02;3.53;;;1.15;;
27632;SDS011;15046;50.930;13.334;2023-04-03T13:34:43;4.75;;;1.17;;
27632;SDS011;15046;50.930;13.334;2023-04-03T13:37:22;7.03;;;1.15;;
27632;SDS011;15046;50.930;13.334;2023-04-03T13:39:59;3.72;;;1.00;;
27632;SDS011;15046;50.930;13.334;2023-04-03T13:42:27;3.58;;;1.33;;
27632;SDS011;15046;50.930;13.334;2023-04-03T13:48:39;5.00;;;1.45;;
27632;SDS011;15046;50.930;13.334;2023-04-03T13:51:40;4.20;;;1.55;;
27632;SDS011;15046;50.930;13.334;2023-04-03T13:54:21;4.18;;;0.80;;
27632;SDS011;15046;50.930;13.334;2023-04-03T13:56:39;4.05;;;1.13;;
27632;SDS011;15046;50.930;13.334;2023-04-03T14:04:16;4.75;;;1.20;;
27632;SDS011;15046;50.930;13.334;2023-04-03T14:06:48;3.08;;;1.20;;
27632;SDS011;15046;50.930;13.334;2023-04-03T14:09:15;4.03;;;1.35;;
27632;SDS011;15046;50.930;13.334;2023-04-03T14:11:42;9.10;;;2.42;;
27632;SDS011;15046;50.930;13.334;2023-04-03T14:14:16;3.72;;;1.30;;
27632;SDS011;15046;50.930;13.334;2023-04-03T14:16:56;7.60;;;1.30;;
27632;SDS011;15046;50.930;13.334;2023-04-03T14:19:29;3.45;;;1.40;;
27632;SDS011;15046;50.930;13.334;2023-04-03T14:21:58;3.40;;;1.20;;
27632;SDS011;15046;50.930;13.334;2023-04-03T14:24:25;5.32;;;1.00;;
27632;SDS011;15046;50.930;13.334;2023-04-03T14:26:52;3.83;;;1.05;;
27632;SDS011;15046;50.930;13.334;2023-04-03T14:29:22;4.47;;;1.50;;
27632;SDS011;15046;50.930;13.334;2023-04-03T14:31:49;4.30;;;1.35;;
27632;SDS011;15046;50.930;13.334;2023-04-03T14:34:15;9.00;;;1.58;;
27632;SDS011;15046;50.930;13.334;2023-04-03T14:36:42;6.38;;;1.48;;
27632;SDS011;15046;50.930;13.334;2023-04-03T14:39:27;5.45;;;1.42;;
27632;SDS011;15046;50.930;13.334;2023-04-03T14:41:53;5.13;;;1.58;;
27632;SDS011;15046;50.930;13.334;2023-04-03T14:44:18;2.95;;;1.10;;
27632;SDS011;15046;50.930;13.334;2023-04-03T14:46:44;4.55;;;1.13;;
27632;SDS011;15046;50.930;13.334;2023-04-03T14:49:14;4.60;;;1.42;;
27632;SDS011;15046;50.930;13.334;2023-04-03T14:51:43;5.15;;;1.35;;
27632;SDS011;15046;50.930;13.334;2023-04-03T14:54:16;4.10;;;1.55;;
27632;SDS011;15046;50.930;13.334;2023-04-03T14:56:50;3.90;;;0.98;;
27632;SDS011;15046;50.930;13.334;2023-04-03T14:59:16;9.82;;;2.72;;
27632;SDS011;15046;50.930;13.334;2023-04-03T15:01:45;4.68;;;1.40;;
27632;SDS011;15046;50.930;13.334;2023-04-03T15:04:14;4.55;;;1.40;;
27632;SDS011;15046;50.930;13.334;2023-04-03T15:06:45;2.75;;;1.00;;
27632;SDS011;15046;50.930;13.334;2023-04-03T15:09:20;4.13;;;1.20;;
27632;SDS011;15046;50.930;13.334;2023-04-03T15:11:49;4.82;;;1.27;;
27632;SDS011;15046;50.930;13.334;2023-04-03T15:14:16;4.00;;;1.52;;
27632;SDS011;15046;50.930;13.334;2023-04-03T15:16:42;5.70;;;1.20;;
27632;SDS011;15046;50.930;13.334;2023-04-03T15:19:08;4.53;;;1.38;;
27632;SDS011;15046;50.930;13.334;2023-04-03T15:21:34;4.90;;;1.00;;
27632;SDS011;15046;50.930;13.334;2023-04-03T15:24:01;5.45;;;1.63;;
27632;SDS011;15046;50.930;13.334;2023-04-03T15:26:26;8.50;;;1.30;;
27632;SDS011;15046;50.930;13.334;2023-04-03T15:28:52;4.43;;;1.65;;
27632;SDS011;15046;50.930;13.334;2023-04-03T15:31:18;4.07;;;1.42;;
27632;SDS011;15046;50.930;13.334;2023-04-03T15:33:44;3.78;;;1.60;;
27632;SDS011;15046;50.930;13.334;2023-04-03T15:36:10;4.57;;;1.27;;
27632;SDS011;15046;50.930;13.334;2023-04-03T15:38:35;2.50;;;1.10;;
27632;SDS011;15046;50.930;13.334;2023-04-03T15:41:03;4.85;;;1.45;;
27632;SDS011;15046;50.930;13.334;2023-04-03T15:43:29;4.82;;;1.90;;
27632;SDS011;15046;50.930;13.334;2023-04-03T15:45:58;5.38;;;2.10;;
27632;SDS011;15046;50.930;13.334;2023-04-03T15:48:25;5.32;;;1.90;;
27632;SDS011;15046;50.930;13.334;2023-04-03T15:50:52;4.35;;;1.00;;
27632;SDS011;15046;50.930;13.334;2023-04-03T15:53:18;4.28;;;1.40;;
27632;SDS011;15046;50.930;13.334;2023-04-03T15:55:44;3.65;;;1.13;;
27632;SDS011;15046;50.930;13.334;2023-04-03T15:58:10;3.22;;;1.05;;
27632;SDS011;15046;50.930;13.334;2023-04-03T16:00:36;3.38;;;1.40;;
27632;SDS011;15046;50.930;13.334;2023-04-03T16:03:07;4.15;;;1.20;;
27632;SDS011;15046;50.930;13.334;2023-04-03T16:05:35;4.10;;;1.42;;
27632;SDS011;15046;50.930;13.334;2023-04-03T16:08:03;5.28;;;1.65;;
27632;SDS011;15046;50.930;13.334;2023-04-03T16:10:29;3.65;;;1.13;;
27632;SDS011;15046;50.930;13.334;2023-04-03T16:12:54;5.95;;;1.63;;
27632;SDS011;15046;50.930;13.334;2023-04-03T16:15:20;3.55;;;1.13;;
27632;SDS011;15046;50.930;13.334;2023-04-03T16:17:46;3.40;;;1.35;;
27632;SDS011;15046;50.930;13.334;2023-04-03T16:20:13;6.63;;;1.38;;
27632;SDS011;15046;50.930;13.334;2023-04-03T16:22:40;5.00;;;1.38;;
27632;SDS011;15046;50.930;13.334;2023-04-03T16:25:06;4.28;;;1.08;;